Terminal Aerodrome Forecast
Issued by NWS

Current Version | Previous Version | Graphics & Text | Print | Product List | Glossary On
Versions: 1 2 3 4 5 6 7 8 9 10 11 12 13 14 15 16
428
FTUS41 KPBZ 212335
TAFMGW
TAF
KMGW 212335Z 2200/2224 VRB04KT P6SM SKC
     FM220900 VRB03KT 3SM BR SKC
     FM221200 13004KT P6SM SKC=

USA.gov is the U.S. government's official web portal to all federal, state and local government web resources and services.